createdAt,value
2022-10-11T00:00:13.610Z,1004.74
2022-10-11T00:00:35.970Z,1004.64
2022-10-11T00:01:01.672Z,1004.64
2022-10-11T00:01:33.559Z,1004.64
2022-10-11T00:02:07.358Z,1004.84
2022-10-11T00:02:35.462Z,1004.84
2022-10-11T00:02:53.536Z,1004.84
2022-10-11T00:03:25.466Z,1004.84
2022-10-11T00:03:42.735Z,1004.74
2022-10-11T00:04:13.517Z,1004.74
2022-10-11T00:04:35.535Z,1004.91
2022-10-11T00:05:01.749Z,1004.91
2022-10-11T00:05:33.603Z,1004.91
2022-10-11T00:06:06.124Z,1004.74
2022-10-11T00:06:35.855Z,1004.74
2022-10-11T00:06:53.510Z,1004.74
2022-10-11T00:07:25.480Z,1004.74
2022-10-11T00:07:57.535Z,1004.84
2022-10-11T00:08:29.600Z,1004.84
2022-10-11T00:09:01.739Z,1004.84
2022-10-11T00:09:33.604Z,1004.84
2022-10-11T00:10:06.282Z,1004.91
2022-10-11T00:10:36.024Z,1004.84
2022-10-11T00:10:53.524Z,1004.84
2022-10-11T00:11:35.473Z,1004.84
2022-10-11T00:11:57.527Z,1004.84
2022-10-11T00:12:29.653Z,1004.84
2022-10-11T00:13:01.862Z,1004.64
2022-10-11T00:13:33.461Z,1004.64
2022-10-11T00:14:05.693Z,1004.64
2022-10-11T00:14:35.565Z,1004.74
2022-10-11T00:14:53.556Z,1004.74
2022-10-11T00:15:25.600Z,1004.74
2022-10-11T00:15:43.433Z,1004.64
2022-10-11T00:16:13.532Z,1004.64
2022-10-11T00:16:35.503Z,1004.74
2022-10-11T00:17:01.689Z,1004.74
2022-10-11T00:17:33.517Z,1004.74
2022-10-11T00:18:05.666Z,1004.64
2022-10-11T00:18:36.028Z,1004.74
2022-10-11T00:18:53.694Z,1004.74
2022-10-11T00:19:25.560Z,1004.74
2022-10-11T00:20:02.604Z,1004.64
2022-10-11T00:20:29.626Z,1004.64
2022-10-11T00:21:02.005Z,1004.74
2022-10-11T00:21:33.549Z,1004.74
2022-10-11T00:22:05.475Z,1004.91
2022-10-11T00:22:35.611Z,1004.84
2022-10-11T00:22:53.704Z,1004.84
2022-10-11T00:23:25.597Z,1004.84
2022-10-11T00:23:42.906Z,1004.84
2022-10-11T00:24:13.639Z,1004.84
2022-10-11T00:24:35.519Z,1004.74
2022-10-11T00:25:01.629Z,1004.74
2022-10-11T00:25:38.825Z,1004.74
2022-10-11T00:26:05.798Z,1004.91
2022-10-11T00:26:35.599Z,1004.84
2022-10-11T00:26:53.532Z,1004.84
2022-10-11T00:27:25.503Z,1004.84
2022-10-11T00:27:42.997Z,1004.91
2022-10-11T00:28:13.525Z,1004.91
2022-10-11T00:28:35.751Z,1005.11
2022-10-11T00:29:01.743Z,1005.11
2022-10-11T00:29:33.815Z,1005.11
2022-10-11T00:30:05.863Z,1004.91
2022-10-11T00:30:35.723Z,1004.84
2022-10-11T00:30:53.702Z,1004.84
2022-10-11T00:31:25.702Z,1004.84
2022-10-11T00:31:42.752Z,1005.01
2022-10-11T00:32:13.482Z,1005.01
2022-10-11T00:32:35.575Z,1004.64
2022-10-11T00:33:01.590Z,1004.64
2022-10-11T00:33:33.490Z,1004.64
2022-10-11T00:34:05.534Z,1005.01
2022-10-11T00:34:35.573Z,1004.84
2022-10-11T00:34:53.729Z,1004.84
2022-10-11T00:35:26.322Z,1004.84
2022-10-11T00:35:43.504Z,1005.01
2022-10-11T00:36:13.502Z,1005.01
2022-10-11T00:36:35.665Z,1004.91
2022-10-11T00:37:01.608Z,1004.91
2022-10-11T00:37:33.498Z,1004.91
2022-10-11T00:38:05.720Z,1004.74
2022-10-11T00:38:35.703Z,1004.84
2022-10-11T00:38:53.466Z,1004.84
2022-10-11T00:39:25.591Z,1004.84
2022-10-11T00:39:57.846Z,1004.91
2022-10-11T00:40:30.417Z,1004.91
2022-10-11T00:41:01.603Z,1005.11
2022-10-11T00:41:33.607Z,1005.11
2022-10-11T00:42:05.572Z,1005.01
2022-10-11T00:42:35.481Z,1004.74
2022-10-11T00:42:53.517Z,1004.74
2022-10-11T00:43:25.463Z,1004.74
2022-10-11T00:43:43.482Z,1004.84
2022-10-11T00:44:13.451Z,1004.84
2022-10-11T00:44:35.485Z,1005.11
2022-10-11T00:45:01.789Z,1005.11
2022-10-11T00:45:34.216Z,1005.11
2022-10-11T00:46:05.829Z,1005.01
2022-10-11T00:46:35.556Z,1004.91
2022-10-11T00:46:55.910Z,1004.91
2022-10-11T00:47:25.444Z,1004.91
2022-10-11T00:47:42.733Z,1004.91
2022-10-11T00:48:13.491Z,1004.91
2022-10-11T00:48:35.758Z,1005.01
2022-10-11T00:49:01.572Z,1005.01
2022-10-11T00:49:33.646Z,1005.01
2022-10-11T00:50:05.468Z,1005.01
2022-10-11T00:50:36.526Z,1004.84
2022-10-11T00:51:09.523Z,1004.84
2022-10-11T00:51:35.777Z,1005.01
2022-10-11T00:51:57.474Z,1005.01
2022-10-11T00:52:29.525Z,1005.01
2022-10-11T00:53:01.516Z,1005.01
2022-10-11T00:53:38.855Z,1005.01
2022-10-11T00:54:05.768Z,1004.91
2022-10-11T00:54:36.078Z,1005.11
2022-10-11T00:54:53.601Z,1005.11
2022-10-11T00:55:25.730Z,1005.11
2022-10-11T00:55:44.113Z,1005.01
2022-10-11T00:56:13.457Z,1005.01
2022-10-11T00:56:35.524Z,1005.01
2022-10-11T00:57:02.034Z,1005.01
2022-10-11T00:57:33.666Z,1005.01
2022-10-11T00:58:05.445Z,1005.11
2022-10-11T00:58:35.684Z,1005.21
2022-10-11T00:58:53.534Z,1005.21
2022-10-11T00:59:25.550Z,1005.21
2022-10-11T00:59:42.858Z,1005.11
2022-10-11T01:00:13.607Z,1005.11
2022-10-11T01:00:35.565Z,1005.11
2022-10-11T01:01:01.761Z,1005.11
2022-10-11T01:01:33.631Z,1005.11
2022-10-11T01:02:05.580Z,1005.11
2022-10-11T01:02:35.498Z,1005.01
2022-10-11T01:02:53.715Z,1005.01
2022-10-11T01:03:25.501Z,1005.01
2022-10-11T01:03:47.948Z,1005.01
2022-10-11T01:04:13.459Z,1005.01
2022-10-11T01:04:35.604Z,1005.01
2022-10-11T01:05:27.703Z,1005.01
2022-10-11T01:05:34.161Z,1005.01
2022-10-11T01:06:06.531Z,1005.01
2022-10-11T01:06:35.858Z,1005.32
2022-10-11T01:06:53.571Z,1005.32
2022-10-11T01:07:25.608Z,1005.32
2022-10-11T01:07:43.026Z,1005.01
2022-10-11T01:08:13.489Z,1005.01
2022-10-11T01:08:35.528Z,1005.32
2022-10-11T01:09:01.732Z,1005.32
2022-10-11T01:09:33.577Z,1005.32
2022-10-11T01:10:05.581Z,1005.21
2022-10-11T01:10:35.520Z,1005.21
2022-10-11T01:10:53.504Z,1005.21
2022-10-11T01:11:25.546Z,1005.21
2022-10-11T01:11:43.710Z,1005.11
2022-10-11T01:12:13.577Z,1005.11
2022-10-11T01:12:35.508Z,1005.11
2022-10-11T01:13:02.346Z,1005.11
2022-10-11T01:13:33.452Z,1005.11
2022-10-11T01:14:05.684Z,1005.21
2022-10-11T01:14:35.618Z,1005.01
2022-10-11T01:14:53.451Z,1005.01
2022-10-11T01:15:25.659Z,1005.01
2022-10-11T01:16:02.998Z,1005.11
2022-10-11T01:16:29.449Z,1005.11
2022-10-11T01:17:01.643Z,1004.91
2022-10-11T01:17:34.108Z,1004.91
2022-10-11T01:18:05.533Z,1005.01
2022-10-11T01:18:35.757Z,1004.91
2022-10-11T01:18:53.586Z,1004.91
2022-10-11T01:19:25.406Z,1004.91
2022-10-11T01:19:43.387Z,1005.01
2022-10-11T01:20:13.653Z,1005.01
2022-10-11T01:20:35.527Z,1005.21
2022-10-11T01:21:01.479Z,1005.21
2022-10-11T01:21:38.434Z,1005.21
2022-10-11T01:22:05.536Z,1005.11
2022-10-11T01:22:35.521Z,1005.21
2022-10-11T01:22:53.527Z,1005.21
2022-10-11T01:23:25.473Z,1005.21
2022-10-11T01:23:43.669Z,1005.01
2022-10-11T01:24:13.449Z,1005.01
2022-10-11T01:24:35.910Z,1005.11
2022-10-11T01:25:01.544Z,1005.11
2022-10-11T01:25:33.439Z,1005.11
2022-10-11T01:26:05.764Z,1005.21
2022-10-11T01:26:35.477Z,1005.32
2022-10-11T01:26:53.511Z,1005.32
2022-10-11T01:27:25.403Z,1005.32
2022-10-11T01:27:42.866Z,1005.32
2022-10-11T01:28:13.528Z,1005.32
2022-10-11T01:28:36.213Z,1005.01
2022-10-11T01:29:01.497Z,1005.01
2022-10-11T01:29:33.447Z,1005.01
2022-10-11T01:30:05.743Z,1005.11
2022-10-11T01:30:36.042Z,1005.11
2022-10-11T01:30:53.518Z,1005.11
2022-10-11T01:31:26.122Z,1005.11
2022-10-11T01:31:43.267Z,1005.21
2022-10-11T01:32:13.342Z,1005.21
2022-10-11T01:32:35.492Z,1005.11
2022-10-11T01:33:01.573Z,1005.11
2022-10-11T01:33:33.435Z,1005.11
2022-10-11T01:34:05.376Z,1005.21
2022-10-11T01:34:36.028Z,1005.32
2022-10-11T01:34:53.461Z,1005.32
2022-10-11T01:35:25.449Z,1005.32
2022-10-11T01:35:42.858Z,1005.32
2022-10-11T01:36:13.404Z,1005.32
2022-10-11T01:36:36.071Z,1005.32
2022-10-11T01:37:01.506Z,1005.32
2022-10-11T01:37:33.451Z,1005.32
2022-10-11T01:38:05.477Z,1005.52
2022-10-11T01:38:35.540Z,1005.11
2022-10-11T01:38:53.459Z,1005.11
2022-10-11T01:39:25.446Z,1005.11
2022-10-11T01:39:43.533Z,1005.32
2022-10-11T01:40:13.591Z,1005.32
2022-10-11T01:40:35.546Z,1005.11
2022-10-11T01:41:01.353Z,1005.11
2022-10-11T01:41:34.586Z,1005.11
2022-10-11T01:42:05.451Z,1005.32
2022-10-11T01:42:36.112Z,1005.32
2022-10-11T01:42:53.471Z,1005.32
2022-10-11T01:43:25.506Z,1005.32
2022-10-11T01:43:42.802Z,1005.42
2022-10-11T01:44:13.683Z,1005.42
2022-10-11T01:44:35.524Z,1005.11
2022-10-11T01:45:01.492Z,1005.11
2022-10-11T01:45:33.447Z,1005.11
2022-10-11T01:46:06.222Z,1005.32
2022-10-11T01:46:36.560Z,1005.21
2022-10-11T01:46:53.461Z,1005.21
2022-10-11T01:47:25.411Z,1005.21
2022-10-11T01:47:42.958Z,1005.11
2022-10-11T01:48:13.470Z,1005.11
2022-10-11T01:48:35.540Z,1005.32
2022-10-11T01:49:01.559Z,1005.32
2022-10-11T01:49:38.498Z,1005.32
2022-10-11T01:50:05.529Z,1005.32
2022-10-11T01:50:35.722Z,1005.21
2022-10-11T01:50:53.496Z,1005.21
2022-10-11T01:51:25.702Z,1005.21
2022-10-11T01:51:47.097Z,1005.32
2022-10-11T01:52:13.476Z,1005.32
2022-10-11T01:52:35.574Z,1005.32
2022-10-11T01:53:01.505Z,1005.32
2022-10-11T01:53:33.472Z,1005.32
2022-10-11T01:54:05.580Z,1005.42
2022-10-11T01:55:03.967Z,1005.42
2022-10-11T01:55:25.401Z,1005.42
2022-10-11T01:55:42.995Z,1005.42
2022-10-11T01:56:13.570Z,1005.42
2022-10-11T01:56:35.760Z,1005.32
2022-10-11T01:57:01.569Z,1005.32
2022-10-11T01:57:33.501Z,1005.32
2022-10-11T01:58:05.636Z,1005.42
2022-10-11T01:58:35.534Z,1005.21
2022-10-11T01:58:53.497Z,1005.21
2022-10-11T01:59:25.406Z,1005.21
2022-10-11T01:59:47.834Z,1005.42
2022-10-11T02:00:13.514Z,1005.42
2022-10-11T02:00:36.096Z,1005.21
2022-10-11T02:01:01.542Z,1005.21
2022-10-11T02:01:33.700Z,1005.21
2022-10-11T02:02:06.064Z,1005.62
2022-10-11T02:02:35.583Z,1005.32
2022-10-11T02:02:53.422Z,1005.32
2022-10-11T02:03:25.798Z,1005.32
2022-10-11T02:03:42.894Z,1005.42
2022-10-11T02:04:13.413Z,1005.42
2022-10-11T02:04:35.591Z,1005.21
2022-10-11T02:05:01.492Z,1005.21
2022-10-11T02:05:33.412Z,1005.21
2022-10-11T02:06:05.713Z,1005.52
2022-10-11T02:06:35.579Z,1005.52
2022-10-11T02:06:53.701Z,1005.52
2022-10-11T02:07:25.437Z,1005.52
2022-10-11T02:07:42.849Z,1005.62
2022-10-11T02:08:13.402Z,1005.62
2022-10-11T02:08:35.462Z,1005.32
2022-10-11T02:09:07.085Z,1005.32
2022-10-11T02:09:34.066Z,1005.32
2022-10-11T02:10:05.408Z,1005.32
2022-10-11T02:10:35.864Z,1005.52
2022-10-11T02:10:53.462Z,1005.52
2022-10-11T02:11:25.404Z,1005.52
2022-10-11T02:11:43.441Z,1005.52
2022-10-11T02:12:14.236Z,1005.52
2022-10-11T02:12:36.054Z,1005.62
2022-10-11T02:13:01.711Z,1005.62
2022-10-11T02:13:33.729Z,1005.62
2022-10-11T02:14:05.449Z,1005.32
2022-10-11T02:14:36.175Z,1005.21
2022-10-11T02:14:53.439Z,1005.21
2022-10-11T02:15:25.491Z,1005.21
2022-10-11T02:15:43.563Z,1005.32
2022-10-11T02:16:13.421Z,1005.32
2022-10-11T02:16:35.578Z,1005.52
2022-10-11T02:17:01.385Z,1005.52
2022-10-11T02:17:33.391Z,1005.52
2022-10-11T02:18:05.533Z,1005.52
2022-10-11T02:18:35.979Z,1005.42
2022-10-11T02:18:53.455Z,1005.42
2022-10-11T02:19:25.442Z,1005.42
2022-10-11T02:19:42.947Z,1005.32
2022-10-11T02:20:13.419Z,1005.32
2022-10-11T02:20:36.110Z,1005.52
2022-10-11T02:21:01.385Z,1005.52
2022-10-11T02:21:33.414Z,1005.52
2022-10-11T02:22:05.407Z,1005.52
2022-10-11T02:22:35.724Z,1005.72
2022-10-11T02:22:53.454Z,1005.72
2022-10-11T02:23:25.367Z,1005.72
2022-10-11T02:23:43.496Z,1005.62
2022-10-11T02:24:18.520Z,1005.62
2022-10-11T02:24:35.521Z,1005.82
2022-10-11T02:25:01.407Z,1005.82
2022-10-11T02:25:33.403Z,1005.82
2022-10-11T02:26:06.043Z,1005.52
2022-10-11T02:26:35.545Z,1005.42
2022-10-11T02:26:53.455Z,1005.42
2022-10-11T02:27:26.056Z,1005.42
2022-10-11T02:27:48.184Z,1005.62
2022-10-11T02:28:13.462Z,1005.62
2022-10-11T02:28:35.562Z,1005.62
2022-10-11T02:29:01.465Z,1005.62
2022-10-11T02:29:34.337Z,1005.62
2022-10-11T02:30:05.747Z,1005.72
2022-10-11T02:30:35.683Z,1005.52
2022-10-11T02:30:53.751Z,1005.52
2022-10-11T02:31:25.389Z,1005.52
2022-10-11T02:31:43.476Z,1005.62
2022-10-11T02:32:13.402Z,1005.62
2022-10-11T02:32:35.496Z,1005.52
2022-10-11T02:33:01.435Z,1005.52
2022-10-11T02:33:33.417Z,1005.52
2022-10-11T02:34:05.399Z,1005.52
2022-10-11T02:34:35.524Z,1005.72
2022-10-11T02:34:53.411Z,1005.72
2022-10-11T02:35:30.486Z,1005.72
2022-10-11T02:35:57.658Z,1005.62
2022-10-11T02:36:29.515Z,1005.62
2022-10-11T02:37:01.473Z,1005.42
2022-10-11T02:37:34.089Z,1005.42
2022-10-11T02:38:05.397Z,1005.42
2022-10-11T02:38:35.997Z,1005.62
2022-10-11T02:38:53.495Z,1005.62
2022-10-11T02:39:25.405Z,1005.62
2022-10-11T02:39:43.235Z,1005.42
2022-10-11T02:40:13.491Z,1005.42
2022-10-11T02:40:35.726Z,1005.42
2022-10-11T02:41:06.561Z,1005.42
2022-10-11T02:41:33.437Z,1005.42
2022-10-11T02:42:05.403Z,1005.52
2022-10-11T02:42:36.441Z,1005.42
2022-10-11T02:43:09.571Z,1005.42
2022-10-11T02:43:35.529Z,1005.62
2022-10-11T02:43:57.385Z,1005.62
2022-10-11T02:44:29.699Z,1005.62
2022-10-11T02:45:01.536Z,1005.42
2022-10-11T02:45:33.403Z,1005.42
2022-10-11T02:46:05.833Z,1005.72
2022-10-11T02:46:35.717Z,1005.32
2022-10-11T02:46:53.423Z,1005.32
2022-10-11T02:47:25.416Z,1005.32
2022-10-11T02:47:43.212Z,1005.52
2022-10-11T02:48:13.629Z,1005.52
2022-10-11T02:48:35.555Z,1005.72
2022-10-11T02:49:01.388Z,1005.72
2022-10-11T02:49:33.452Z,1005.72
2022-10-11T02:50:05.577Z,1005.42
2022-10-11T02:50:35.802Z,1005.52
2022-10-11T02:50:53.408Z,1005.52
2022-10-11T02:51:25.362Z,1005.52
2022-10-11T02:51:42.943Z,1005.72
2022-10-11T02:52:18.668Z,1005.72
2022-10-11T02:52:35.733Z,1005.72
2022-10-11T02:53:01.415Z,1005.72
2022-10-11T02:53:33.766Z,1005.72
2022-10-11T02:54:05.598Z,1005.62
2022-10-11T02:54:36.093Z,1005.62
2022-10-11T02:54:53.536Z,1005.62
2022-10-11T02:55:25.377Z,1005.62
2022-10-11T02:55:47.883Z,1005.62
2022-10-11T02:56:13.436Z,1005.62
2022-10-11T02:56:35.985Z,1005.52
2022-10-11T02:57:01.524Z,1005.52
2022-10-11T02:57:33.449Z,1005.52
2022-10-11T02:58:06.090Z,1005.52
2022-10-11T02:58:36.089Z,1005.62
2022-10-11T02:58:53.606Z,1005.62
2022-10-11T02:59:25.755Z,1005.62
2022-10-11T02:59:43.127Z,1005.62
2022-10-11T03:00:13.491Z,1005.62
2022-10-11T03:00:35.761Z,1005.52
2022-10-11T03:01:01.426Z,1005.52
2022-10-11T03:01:33.425Z,1005.52
2022-10-11T03:02:05.964Z,1005.62
2022-10-11T03:02:35.723Z,1005.72
2022-10-11T03:02:53.500Z,1005.72
2022-10-11T03:03:30.469Z,1005.72
2022-10-11T03:03:43.657Z,1005.52
2022-10-11T03:04:13.622Z,1005.52
2022-10-11T03:04:35.872Z,1005.62
2022-10-11T03:05:01.626Z,1005.62
2022-10-11T03:05:33.387Z,1005.62
2022-10-11T03:06:05.752Z,1005.82
2022-10-11T03:06:35.682Z,1005.82
2022-10-11T03:06:53.521Z,1005.82
2022-10-11T03:07:25.415Z,1005.82
2022-10-11T03:07:43.653Z,1005.82
2022-10-11T03:08:14.016Z,1005.82
2022-10-11T03:08:35.582Z,1005.52
2022-10-11T03:09:06.647Z,1005.52
2022-10-11T03:09:33.397Z,1005.52
2022-10-11T03:10:05.395Z,1005.82
2022-10-11T03:10:36.079Z,1005.72
2022-10-11T03:10:53.417Z,1005.72
2022-10-11T03:11:25.404Z,1005.72
2022-10-11T03:11:42.953Z,1005.72
2022-10-11T03:12:13.384Z,1005.72
2022-10-11T03:12:35.790Z,1005.62
2022-10-11T03:13:01.748Z,1005.62
2022-10-11T03:13:33.528Z,1005.62
2022-10-11T03:14:05.432Z,1005.72
2022-10-11T03:14:35.968Z,1005.82
2022-10-11T03:14:53.404Z,1005.82
2022-10-11T03:15:25.496Z,1005.82
2022-10-11T03:15:42.795Z,1005.93
2022-10-11T03:16:14.158Z,1005.93
2022-10-11T03:16:35.679Z,1005.93
2022-10-11T03:17:23.841Z,1005.93
2022-10-11T03:17:49.439Z,1005.72
2022-10-11T03:18:22.075Z,1005.72
2022-10-11T03:18:39.165Z,1005.93
2022-10-11T03:19:09.305Z,1005.93
2022-10-11T03:19:35.971Z,1005.82
2022-10-11T03:19:58.333Z,1005.82
2022-10-11T03:20:29.450Z,1005.82
2022-10-11T03:21:01.603Z,1005.82
2022-10-11T03:21:35.521Z,1005.82
2022-10-11T03:22:05.562Z,1005.82
2022-10-11T03:22:35.586Z,1005.82
2022-10-11T03:22:53.484Z,1005.82
2022-10-11T03:23:26.006Z,1005.82
2022-10-11T03:23:48.434Z,1005.72
2022-10-11T03:24:13.402Z,1005.72
2022-10-11T03:24:35.660Z,1006.03
2022-10-11T03:25:04.345Z,1006.03
2022-10-11T03:25:33.433Z,1006.03
2022-10-11T03:26:05.580Z,1006.03
2022-10-11T03:26:35.752Z,1006.03
2022-10-11T03:26:53.408Z,1006.03
2022-10-11T03:27:25.484Z,1006.03
2022-10-11T03:27:58.124Z,1005.93
2022-10-11T03:28:30.312Z,1005.93
2022-10-11T03:29:01.372Z,1005.93
2022-10-11T03:29:33.732Z,1005.93
2022-10-11T03:30:05.820Z,1005.93
2022-10-11T03:30:35.642Z,1005.93
2022-10-11T03:30:53.465Z,1005.93
2022-10-11T03:31:30.546Z,1005.93
2022-10-11T03:31:42.907Z,1005.82
2022-10-11T03:32:13.404Z,1005.82
2022-10-11T03:32:35.572Z,1006.03
2022-10-11T03:33:01.482Z,1006.03
2022-10-11T03:33:34.175Z,1006.03
2022-10-11T03:34:05.373Z,1006.13
2022-10-11T03:34:37.263Z,1006.03
2022-10-11T03:35:09.441Z,1006.03
2022-10-11T03:35:35.526Z,1006.13
2022-10-11T03:35:57.556Z,1006.13
2022-10-11T03:36:29.464Z,1006.13
2022-10-11T03:37:06.510Z,1006.03
2022-10-11T03:37:33.387Z,1006.03
2022-10-11T03:38:05.468Z,1006.13
2022-10-11T03:38:36.747Z,1006.13
2022-10-11T03:38:53.370Z,1006.13
2022-10-11T03:39:25.448Z,1006.13
2022-10-11T03:39:42.930Z,1006.03
2022-10-11T03:40:13.592Z,1006.03
2022-10-11T03:40:37.788Z,1006.03
2022-10-11T03:41:01.547Z,1006.03
2022-10-11T03:41:35.757Z,1006.03
2022-10-11T03:42:05.605Z,1006.03
2022-10-11T03:42:35.826Z,1006.13
2022-10-11T03:42:53.559Z,1006.13
2022-10-11T03:43:25.525Z,1006.13
2022-10-11T03:43:44.820Z,1006.13
2022-10-11T03:44:13.630Z,1006.13
2022-10-11T03:44:35.706Z,1006.13
2022-10-11T03:45:01.710Z,1006.13
2022-10-11T03:45:33.627Z,1006.13
2022-10-11T03:46:05.698Z,1006.23
2022-10-11T03:46:35.625Z,1006.13
2022-10-11T03:46:53.444Z,1006.13
2022-10-11T03:47:25.488Z,1006.13
2022-10-11T03:47:42.943Z,1005.93
2022-10-11T03:48:18.577Z,1005.93
2022-10-11T03:48:35.614Z,1006.33
2022-10-11T03:49:01.411Z,1006.33
2022-10-11T03:49:33.504Z,1006.33
2022-10-11T03:50:05.702Z,1006.23
2022-10-11T03:50:36.380Z,1006.03
2022-10-11T03:50:53.412Z,1006.03
2022-10-11T03:51:25.379Z,1006.03
2022-10-11T03:51:42.789Z,1006.13
2022-10-11T03:52:13.419Z,1006.13
2022-10-11T03:52:35.527Z,1006.23
2022-10-11T03:53:01.388Z,1006.23
2022-10-11T03:53:33.406Z,1006.23
2022-10-11T03:54:06.055Z,1006.23
2022-10-11T03:54:36.264Z,1006.13
2022-10-11T03:54:53.428Z,1006.13
2022-10-11T03:55:25.336Z,1006.13
2022-10-11T03:55:43.352Z,1006.33
2022-10-11T03:56:13.814Z,1006.33
2022-10-11T03:56:35.996Z,1006.13
2022-10-11T03:57:01.385Z,1006.13
2022-10-11T03:57:33.404Z,1006.13
2022-10-11T03:58:05.401Z,1006.33
2022-10-11T03:58:36.099Z,1006.33
2022-10-11T03:58:53.428Z,1006.33
2022-10-11T03:59:30.398Z,1006.33
2022-10-11T03:59:43.431Z,1006.23
2022-10-11T04:00:13.823Z,1006.23
2022-10-11T04:00:36.182Z,1006.23
2022-10-11T04:01:01.572Z,1006.23
2022-10-11T04:01:33.490Z,1006.23
2022-10-11T04:02:05.453Z,1006.23
2022-10-11T04:02:39.059Z,1006.23
2022-10-11T04:02:53.433Z,1006.23
2022-10-11T04:03:25.338Z,1006.23
2022-10-11T04:03:42.805Z,1006.43
2022-10-11T04:04:14.019Z,1006.43
2022-10-11T04:04:35.573Z,1006.23
2022-10-11T04:05:06.458Z,1006.23
2022-10-11T04:05:33.386Z,1006.23
2022-10-11T04:06:05.606Z,1006.23
2022-10-11T04:06:35.878Z,1006.33
2022-10-11T04:06:53.452Z,1006.33
2022-10-11T04:07:25.388Z,1006.33
2022-10-11T04:07:43.376Z,1006.13
2022-10-11T04:08:13.370Z,1006.13
2022-10-11T04:08:35.688Z,1006.43
2022-10-11T04:09:01.314Z,1006.43
2022-10-11T04:09:33.559Z,1006.43
2022-10-11T04:10:06.035Z,1006.33
2022-10-11T04:10:35.937Z,1006.23
2022-10-11T04:10:53.479Z,1006.23
2022-10-11T04:11:25.540Z,1006.23
2022-10-11T04:11:42.962Z,1006.33
2022-10-11T04:12:13.411Z,1006.33
2022-10-11T04:12:35.773Z,1006.33
2022-10-11T04:13:01.710Z,1006.33
2022-10-11T04:13:34.413Z,1006.33
2022-10-11T04:14:05.685Z,1006.43
2022-10-11T04:14:35.520Z,1006.43
2022-10-11T04:14:53.460Z,1006.43
2022-10-11T04:15:25.461Z,1006.43
2022-10-11T04:15:44.035Z,1006.33
2022-10-11T04:16:18.555Z,1006.33
2022-10-11T04:16:35.604Z,1006.33
2022-10-11T04:17:01.358Z,1006.33
2022-10-11T04:17:33.520Z,1006.33
2022-10-11T04:18:05.407Z,1006.33
2022-10-11T04:18:35.631Z,1006.33
2022-10-11T04:18:53.551Z,1006.33
2022-10-11T04:19:25.417Z,1006.33
2022-10-11T04:19:43.028Z,1006.33
2022-10-11T04:20:14.340Z,1006.33
2022-10-11T04:20:35.703Z,1006.23
2022-10-11T04:21:01.399Z,1006.23
2022-10-11T04:21:33.443Z,1006.23
2022-10-11T04:22:05.388Z,1006.33
2022-10-11T04:22:35.692Z,1006.33
2022-10-11T04:22:53.490Z,1006.33
2022-10-11T04:23:25.530Z,1006.33
2022-10-11T04:23:42.969Z,1006.33
2022-10-11T04:24:13.505Z,1006.33
2022-10-11T04:24:35.563Z,1006.43
2022-10-11T04:25:01.396Z,1006.43
2022-10-11T04:25:33.394Z,1006.43
2022-10-11T04:26:05.917Z,1006.43
2022-10-11T04:26:36.137Z,1006.43
2022-10-11T04:26:53.576Z,1006.43
2022-10-11T04:27:30.553Z,1006.43
2022-10-11T04:27:42.966Z,1006.33
2022-10-11T04:28:13.504Z,1006.33
2022-10-11T04:28:36.098Z,1006.43
2022-10-11T04:29:01.552Z,1006.43
2022-10-11T04:29:33.452Z,1006.43
2022-10-11T04:30:05.811Z,1006.33
2022-10-11T04:30:35.781Z,1006.33
2022-10-11T04:30:53.648Z,1006.33
2022-10-11T04:31:25.503Z,1006.33
2022-10-11T04:31:43.011Z,1006.43
2022-10-11T04:32:13.464Z,1006.43
2022-10-11T04:32:35.948Z,1006.53
2022-10-11T04:33:06.471Z,1006.53
2022-10-11T04:33:33.688Z,1006.53
2022-10-11T04:34:05.388Z,1006.13
2022-10-11T04:34:35.942Z,1006.33
2022-10-11T04:34:53.487Z,1006.33
2022-10-11T04:35:26.050Z,1006.33
2022-10-11T04:35:43.220Z,1006.33
2022-10-11T04:36:13.604Z,1006.33
2022-10-11T04:36:35.784Z,1006.33
2022-10-11T04:37:01.620Z,1006.33
2022-10-11T04:37:33.671Z,1006.33
2022-10-11T04:38:05.343Z,1006.53
2022-10-11T04:38:36.419Z,1006.53
2022-10-11T04:39:09.706Z,1006.53
2022-10-11T04:39:35.725Z,1006.53
2022-10-11T04:39:57.373Z,1006.53
2022-10-11T04:40:30.192Z,1006.53
2022-10-11T04:41:01.410Z,1006.53
2022-10-11T04:41:33.456Z,1006.53
2022-10-11T04:42:05.392Z,1006.53
2022-10-11T04:42:35.744Z,1006.53
2022-10-11T04:42:53.504Z,1006.53
2022-10-11T04:43:25.401Z,1006.53
2022-10-11T04:43:42.740Z,1006.53
2022-10-11T04:44:18.608Z,1006.53
2022-10-11T04:44:35.704Z,1006.64
2022-10-11T04:45:01.452Z,1006.64
2022-10-11T04:45:34.774Z,1006.64
2022-10-11T04:46:05.932Z,1006.43
2022-10-11T04:46:35.583Z,1006.43
2022-10-11T04:46:53.446Z,1006.43
2022-10-11T04:47:25.411Z,1006.43
2022-10-11T04:47:42.819Z,1006.64
2022-10-11T04:48:13.555Z,1006.64
2022-10-11T04:48:35.628Z,1006.53
2022-10-11T04:49:01.494Z,1006.53
2022-10-11T04:49:33.621Z,1006.53
2022-10-11T04:50:05.398Z,1006.53
2022-10-11T04:50:36.872Z,1006.53
2022-10-11T04:50:54.010Z,1006.53
2022-10-11T04:51:25.398Z,1006.53
2022-10-11T04:51:42.879Z,1006.74
2022-10-11T04:52:13.489Z,1006.74
2022-10-11T04:52:36.189Z,1006.53
2022-10-11T04:53:01.606Z,1006.53
2022-10-11T04:53:33.633Z,1006.53
2022-10-11T04:54:18.189Z,1006.53
2022-10-11T04:54:35.538Z,1006.64
2022-10-11T04:54:56.475Z,1006.64
2022-10-11T04:55:30.689Z,1006.64
2022-10-11T04:55:43.456Z,1006.64
2022-10-11T04:56:13.489Z,1006.64
2022-10-11T04:56:35.716Z,1006.84
2022-10-11T04:57:01.370Z,1006.84
2022-10-11T04:57:34.280Z,1006.84
2022-10-11T04:58:05.364Z,1006.64
2022-10-11T04:58:35.967Z,1006.74
2022-10-11T04:58:53.544Z,1006.74
2022-10-11T04:59:25.500Z,1006.74
2022-10-11T04:59:46.631Z,1006.84
2022-10-11T05:00:13.776Z,1006.84
2022-10-11T05:00:35.741Z,1006.84
2022-10-11T05:01:01.395Z,1006.84
2022-10-11T05:01:33.500Z,1006.84
2022-10-11T05:02:05.590Z,1006.84
2022-10-11T05:02:35.984Z,1006.53
2022-10-11T05:02:53.593Z,1006.53
2022-10-11T05:03:25.512Z,1006.53
2022-10-11T05:03:43.000Z,1006.84
2022-10-11T05:04:13.519Z,1006.84
2022-10-11T05:04:35.772Z,1006.84
2022-10-11T05:05:01.644Z,1006.84
2022-10-11T05:05:33.495Z,1006.84
2022-10-11T05:06:06.258Z,1006.74
2022-10-11T05:06:35.891Z,1006.64
2022-10-11T05:06:53.556Z,1006.64
2022-10-11T05:07:26.239Z,1006.64
2022-10-11T05:07:43.572Z,1006.64
2022-10-11T05:08:13.561Z,1006.64
2022-10-11T05:08:35.553Z,1006.84
2022-10-11T05:09:01.442Z,1006.84
2022-10-11T05:09:33.482Z,1006.84
2022-10-11T05:10:05.417Z,1006.84
2022-10-11T05:10:35.850Z,1006.53
2022-10-11T05:10:53.511Z,1006.53
2022-10-11T05:11:25.369Z,1006.53
2022-10-11T05:11:43.044Z,1006.74
2022-10-11T05:12:18.651Z,1006.74
2022-10-11T05:12:35.630Z,1006.64
2022-10-11T05:13:01.661Z,1006.64
2022-10-11T05:13:33.613Z,1006.64
2022-10-11T05:14:05.747Z,1006.74
2022-10-11T05:14:35.944Z,1006.84
2022-10-11T05:14:53.563Z,1006.84
2022-10-11T05:15:25.509Z,1006.84
2022-10-11T05:15:43.061Z,1006.84
2022-10-11T05:16:14.295Z,1006.84
2022-10-11T05:16:36.010Z,1006.84
2022-10-11T05:17:01.451Z,1006.84
2022-10-11T05:17:33.509Z,1006.84
2022-10-11T05:18:05.377Z,1006.74
2022-10-11T05:18:35.651Z,1006.64
2022-10-11T05:18:53.602Z,1006.64
2022-10-11T05:19:25.407Z,1006.64
2022-10-11T05:19:42.791Z,1006.84
2022-10-11T05:20:13.596Z,1006.84
2022-10-11T05:20:35.714Z,1006.94
2022-10-11T05:21:01.501Z,1006.94
2022-10-11T05:21:33.526Z,1006.94
2022-10-11T05:22:05.486Z,1006.84
2022-10-11T05:22:36.366Z,1007.01
2022-10-11T05:22:53.524Z,1007.01
2022-10-11T05:23:25.418Z,1007.01
2022-10-11T05:23:43.123Z,1007.11
2022-10-11T05:24:13.521Z,1007.11
2022-10-11T05:24:35.689Z,1007.01
2022-10-11T05:25:01.394Z,1007.01
2022-10-11T05:25:33.497Z,1007.01
2022-10-11T05:26:06.153Z,1006.94
2022-10-11T05:26:35.662Z,1006.84
2022-10-11T05:26:53.559Z,1006.84
2022-10-11T05:27:25.621Z,1006.84
2022-10-11T05:27:42.702Z,1006.84
2022-10-11T05:28:13.643Z,1006.84